Terminal Aerodrome Forecast
Issued by NWS Jackson, KY

Home | Current Version | Previous Version | Text Only | Print | Product List | Glossary On
Versions: 1 2 3 4 5 6 7 8 9 10 11 12 13 14 15 16
000
FTUS43 KJKL 032338
TAFLOZ
TAF
KLOZ 032338Z 0400/0424 30005KT P6SM BKN070
     FM041500 26012KT P6SM VCSH BKN060
     FM041800 25012KT 4SM SHRA OVC050
     FM042100 27011KT 3SM SHRA OVC015=

USA.gov is the U.S. government's official web portal to all federal, state and local government web resources and services.